Racecast

Christine Redor

Ponderosa (OR) · 12 · CVCCA D3SJS D3 · Compare head to head

Athlete rating 131.6 2012 XC season
Best race 133.7 TF
Races 56
Seasons 2 2011 — 2012

RankedNation #1192·CA #205·CA D3 #60·SJS #21·SJS D3 #10·CVC #7·Team #3 ?

Speed rating — all races

Cross Country

XC speed rating

2012 XC 129.6

Ponderosa (OR) · Grade 12

Date Meet Event Result Place Rating Difficulty PR/SR Flags
2012-11-24 Woodward Park 5000m 19:03 41st · 1st on team 131.6 +0.013
2012-11-03 Calaveras County Fairgrounds 4828m 19:26 6th · 1st on team 130.2 +0.065 ★PR ★CR SR CSR
2012-10-27 Willow Hills Reservoir Course 5000m 19:37 10th · 1st on team 131.4 +0.045 ★CR CSR
2012-10-17 Granite Park 5000m 18:48 7th · 1st on team 132.0 +0.002 ★PR ★CR SR CSR RSR
2012-10-12 Woodward Park 5000m 18:57 2nd · 1st on team 129.0 +0.013 PR ★CR SR CSR RSR
2012-09-14 North Tahoe HS 5310m 25:08 3rd · 1st on team 124.1 +0.200 ★PR ★CR SR CSR
2012-09-08 Shadow Mountain Park 4000m 16:09 6th · 1st on team 128.5 +0.060 ★PR ★CR SR CSR RSR

2011 XC 125.7

Ponderosa (OR) · Grade 11

Date Meet Event Result Place Rating Difficulty PR/SR Flags
2011-11-11 Willow Hills Reservoir Course 5000m 19:58 9th · 1st on team 129.3 +0.045 CR CSR
2011-11-05 Calaveras County Fairgrounds 4828m 20:21 26th · 3rd on team 123.5 +0.065 CR CSR
2011-10-15 Willow Hills Reservoir Course 5000m 20:18.7 15th · 1st on team 127.9 +0.045 CR CSR
2011-10-08 Woodward Park 5000m 19:39 28th · 1st on team 127.8 +0.013 CR CSR
2011-09-24 Stanford University Golf Course 5000m 19:03 13th · 1st on team 130.1 +0.002 PR ★CR SR CSR RSR
2011-09-16 North Tahoe HS 5300m 26:39.7 23rd · 4th on team 117.3 +0.200 ★PR ★CR SR CSR
2011-09-03 Lagoon Valley Park 4828m 20:12.7 8th · 1st on team 124.2 +0.056 PR ★CR SR CSR RSR

Track & Field

TF speed rating

2012 TF 126.8

Ponderosa (OR) · Grade 11

Date Meet Event Result Place Rating Difficulty PR/SR Flags
2012-06-01 94th CIF State T&F Champs Prelims 2012 1600m 5:04.88 16th · 1st on team 133.7 -0.043 ★PR SR
2012-05-25 CIF Sac-Joaquin Section Masters Finals 2012 1600m 5:14.09 3rd · 1st on team 131.2 -0.028
2012-05-25 CIF Sac-Joaquin Section Masters Finals 2012 3200m 11:22.68 10th · 1st on team 129.6 -0.028
2012-05-10 Delta River League Varsity Championships 1600m 5:10.44 2nd · 1st on team 133.7 -0.022 PR ★R SR RSR
2012-05-10 Delta River League Varsity Championships 3200m 11:31.74 4th · 1st on team 129.0 -0.022
2012-04-28 Sacramento Meet of Champions 3200m 11:17.8 11th · 1st on team 130.4 -0.034 ★PR SR
2012-04-25 Pleasant Grove/Ponderosa/Sheldon 1600m 5:41.5 1st · 1st on team 119.5 -0.031
2012-04-25 Pleasant Grove/Ponderosa/Sheldon 800m 2:25.1 2nd · 2nd on team 125.1 -0.031 ★PR SR
2012-04-20 Woody Wilson Invitational 1600m 5:13.4 4th · 1st on team 131.2 -0.034 SR RSR
2012-04-20 Woody Wilson Invitational 3200m 11:28.45 12th · 1st on team 128.7 -0.034 PR SR
2012-04-18 Delta River League Meet-Folsom vs Ponderosa 3200m 14:38.5 2nd · 2nd on team -0.022
2012-04-18 Delta River League Meet-Folsom vs Ponderosa 1600m 6:16.5 1st · 1st on team -0.022
2012-04-14 Depth Charge 1600m 5:27.2 1st · 1st on team 126.7 -0.020
2012-04-14 Depth Charge 3200m 11:32.55 1st · 1st on team 128.1 -0.020
2012-04-14 Depth Charge 800m 2:30.74 1st · 1st on team 122.3 -0.020 SR
2012-03-31 Ron Ruptier Memorial Invite (1st Annual) 1600m 5:28.52 1st · 1st on team 127.0 -0.022
2012-03-31 Ron Ruptier Memorial Invite (1st Annual) 800m 2:31.07 2nd · 2nd on team 122.5 -0.022 SR
2012-03-28 Oak Ridge vs Ponderosa 3200m 11:29.9 1st · 1st on team 129.9 -0.018 PR SR RSR
2012-03-28 Oak Ridge vs Ponderosa 1600m 5:19.3 3rd · 1st on team 131.0 -0.018 SR RSR
2012-03-21 Jesuit at Ponderosa 800m 2:32.16 3rd · 2nd on team 121.1 -0.022 SR
2012-03-21 Jesuit at Ponderosa 1600m 5:27.4 1st · 1st on team 126.8 -0.022 SR RSR
2012-03-21 Jesuit at Ponderosa 3200m 11:41.54 2nd · 1st on team 127.3 -0.022 PR SR RSR
2012-03-07 Bella Vista - Ponderosa Dual 800m 2:34.71 3rd · 2nd on team 118.1 -0.036 SR RSR
2012-03-07 Bella Vista - Ponderosa Dual 3200m 12:19 1st · 1st on team 119.6 -0.036 SR RSR
2012-03-07 Bella Vista - Ponderosa Dual 1600m 5:34.04 1st · 1st on team 123.2 -0.036 SR RSR

2011 TF 124.5

Ponderosa (OR) · Grade 10

Date Meet Event Result Place Rating Difficulty PR/SR Flags
2011-05-27 CIF Sac-Joaquin Section Masters Finals 2011 1600m 5:11.2 6th · 1st on team 130.8 -0.037 PR SR
2011-05-20 Sac-Joaquin D1 Finals 1600m 5:17.43 12th · 1st on team 129.4 -0.033
2011-05-12 Delta River League Varsity Championships 1600m 5:14.37 5th · 1st on team 132.2 -0.020 PR R SR RSR
2011-05-12 Delta River League Varsity Championships 3200m 11:55.56 7th · 2nd on team 124.8 -0.020 PR SR
2011-05-04 Ponderosa, Pleasant Grove vs. Jesuit, St. Francis 1600m 5:16.35 1st · 1st on team 130.1 -0.034 PR R SR RSR
2011-05-04 Ponderosa, Pleasant Grove vs. Jesuit, St. Francis 3200m 12:04.08 3rd · 1st on team 122.4 -0.034 PR SR
2011-05-04 Ponderosa, Pleasant Grove vs. Jesuit, St. Francis 800m 2:30.84 5th · 3rd on team 121.0 -0.034
2011-04-30 Sacramento Meet Of Champions 1600m 5:25.4 15th · 1st on team 126.4 -0.037
2011-04-15 Woody Wilson Invitational 1600m 5:33.06 26th · 1st on team 122.7 -0.034
2011-04-13 Jesuit, St. Francis v. Oak Ridge, Ponderosa 1600m 5:25.12 5th · 1st on team 128.0 -0.022 PR R SR RSR
2011-04-13 Jesuit, St. Francis v. Oak Ridge, Ponderosa 800m 2:30.76 6th · 2nd on team 122.8 -0.022
2011-04-13 Jesuit, St. Francis v. Oak Ridge, Ponderosa 3200m 12:13.54 9th · 1st on team 121.3 -0.022
2011-04-02 Bella Vista Bronco Invitational 800m 2:30.4 11th · 2nd on team 120.9 -0.036 PR SR
2011-04-02 Bella Vista Bronco Invitational 3200m 12:46.84 18th · 2nd on team 114.7 -0.036
2011-03-30 Sheldon, Jesuit, St. Francis, Ponderosa 800m 2:31.67 4th · 2nd on team 121.8 -0.020 PR R SR RSR
2011-03-30 Sheldon, Jesuit, St. Francis, Ponderosa 1600m 5:34.66 2nd · 1st on team 124.4 -0.020 PR R SR RSR
2011-03-30 Sheldon, Jesuit, St. Francis, Ponderosa 3200m 12:11.44 3rd · 2nd on team 122.3 -0.020 PR SR